»·PEaware :: N148WT KSNA-KBUR

N148WT :: KSNA-KBUR

FLIGHT INFORMATION

Flight Status: Arrived
Operator: Privately registered:
United States
More flights under this callsign
Pilot: Vlad D. (11271)
Aircraft: Unknown
(B60T)
More flights by this aircraft type
Origin: KSNA John Wayne-Orange Co
United States
Destination: KBUR Bob Hope-Burbank
United States
More flights between these airports :: More routes between these airports
Route: +SLI V23 LAX LAX316R SILEX
File this flight plan on PilotEdge
Remarks: TEC Practice
Altitude:
(Current/Filed)
6,000ft
Speed:
(Current/Filed)
180kts
Departed: 19-May-16 03:30 PM
Arrived: 19-May-16 04:00 PM
Distance/Time
Traveled:
40nm/0:30
Distance/Time
To Go:
Arrived

Flight Plot

Page will automatically refresh every two minutes.


Map Options




Map Legend


Flown Route
Filed Route
Departure Airport
Arrival Airport
Navaid (VOR, NDB)
Fix

Horizontal Profiles

Position Reports

Time Latitude Longitude Heading Altitude Ground
Speed
19-May-16 15:04 33.670225 -117.874694 23 59ft 0kts
19-May-16 15:05 33.670225 -117.874694 23 59ft 0kts
19-May-16 15:06 33.670225 -117.874694 23 59ft 0kts
19-May-16 15:07 33.670225 -117.874694 23 59ft 0kts
19-May-16 15:08 33.670225 -117.874694 23 59ft 0kts
19-May-16 15:09 33.670225 -117.874694 23 59ft 0kts
19-May-16 15:10 33.670226 -117.874694 23 59ft 0kts
19-May-16 15:11 33.670229 -117.874692 23 59ft 0kts
19-May-16 15:12 33.670232 -117.874691 23 59ft 0kts
19-May-16 15:13 33.670235 -117.874690 23 59ft 0kts
19-May-16 15:14 33.670237 -117.874688 23 59ft 0kts
19-May-16 15:15 33.670240 -117.874687 23 59ft 0kts
19-May-16 15:16 33.670243 -117.874685 23 59ft 0kts
19-May-16 15:17 33.670246 -117.874684 23 59ft 0kts
19-May-16 15:18 33.670248 -117.874682 23 59ft 0kts
19-May-16 15:19 33.670251 -117.874681 23 59ft 0kts
19-May-16 15:20 33.670254 -117.874680 23 59ft 0kts
19-May-16 15:21 33.670257 -117.874678 23 59ft 0kts
19-May-16 15:22 33.670261 -117.874676 20 59ft 0kts
19-May-16 15:23 33.670881 -117.873359 27 59ft 11kts
19-May-16 15:24 33.673975 -117.871442 26 59ft 13kts
19-May-16 15:25 33.675126 -117.870743 27 59ft 13kts
19-May-16 15:26 33.680638 -117.867342 27 59ft 9kts
19-May-16 15:27 33.680782 -117.866335 115 59ft 3kts
19-May-16 15:28 33.675274 -117.869135 208 69ft 117kts
19-May-16 15:29 33.638974 -117.879059 187 1913ft 121kts
19-May-16 15:30 33.606186 -117.883555 187 3908ft 119kts
19-May-16 15:31 33.572330 -117.886820 187 5889ft 126kts
19-May-16 15:32 33.526727 -117.890442 187 6002ft 180kts
19-May-16 15:33 33.497091 -117.922903 291 6001ft 173kts
19-May-16 15:34 33.532320 -117.963635 317 6001ft 178kts
19-May-16 15:35 33.570401 -118.001924 317 6000ft 178kts
19-May-16 15:36 33.608121 -118.040197 317 6000ft 177kts
19-May-16 15:37 33.645894 -118.078563 317 5999ft 177kts
19-May-16 15:38 33.683717 -118.116920 317 5998ft 177kts
19-May-16 15:39 33.721574 -118.155305 317 5999ft 177kts
19-May-16 15:40 33.759012 -118.193257 317 6002ft 177kts
19-May-16 15:41 33.797138 -118.231896 317 6004ft 177kts
19-May-16 15:42 33.828143 -118.277105 307 6010ft 176kts
19-May-16 15:43 33.859716 -118.323171 307 6004ft 177kts
19-May-16 15:44 33.890931 -118.369343 307 6001ft 177kts
19-May-16 15:45 33.921922 -118.415337 307 5996ft 176kts
19-May-16 15:46 33.960154 -118.451481 333 6005ft 179kts
19-May-16 15:47 34.004152 -118.478930 327 5996ft 177kts
19-May-16 15:48 34.047536 -118.508322 327 5996ft 179kts
19-May-16 15:49 34.090936 -118.538194 319 5237ft 169kts
19-May-16 15:50 34.123393 -118.575644 312 4096ft 161kts
19-May-16 15:51 34.155485 -118.614217 312 4009ft 172kts
19-May-16 15:52 34.195265 -118.644589 13 4003ft 184kts
19-May-16 15:53 34.205070 -118.593427 111 4001ft 173kts
19-May-16 15:54 34.200684 -118.534837 91 3094ft 170kts
19-May-16 15:55 34.199569 -118.482176 93 2991ft 146kts
19-May-16 15:56 34.198767 -118.432044 92 2208ft 160kts
19-May-16 15:57 34.198342 -118.389799 97 1094ft 98kts
19-May-16 15:58 34.197808 -118.361038 91 724ft 21kts
19-May-16 15:59 34.198346 -118.360344 1 724ft 0kts
19-May-16 16:00 34.198886 -118.359273 92 724ft 8kts
19-May-16 16:01 34.199670 -118.358155 346 724ft 4kts
19-May-16 16:02 34.201402 -118.358646 349 724ft 8kts
19-May-16 16:03 34.201151 -118.359196 165 724ft 2kts
19-May-16 16:04 34.199950 -118.358869 167 724ft 5kts
19-May-16 16:05 34.199625 -118.360809 267 724ft 0kts
19-May-16 16:06 34.199625 -118.360811 267 724ft 0kts

Navigation Log

Ident Type
Flight plan parsing failed, navigation log unavailable